sensor_id;sensor_type;location;lat;lon;timestamp;pressure;altitude;pressure_sealevel;temperature;humidity
77702;BME280;66868;42.708;23.404;2023-04-25T00:02:24;94452.31;;;12.25;93.09
77702;BME280;66868;42.708;23.404;2023-04-25T00:04:50;94425.31;;;12.24;93.13
77702;BME280;66868;42.708;23.404;2023-04-25T00:07:15;94442.69;;;12.39;92.91
77702;BME280;66868;42.708;23.404;2023-04-25T00:09:41;94436.13;;;12.48;92.59
77702;BME280;66868;42.708;23.404;2023-04-25T00:12:07;94401.50;;;12.36;91.87
77702;BME280;66868;42.708;23.404;2023-04-25T00:14:32;94416.94;;;12.55;91.35
77702;BME280;66868;42.708;23.404;2023-04-25T00:16:59;94418.09;;;12.62;90.86
77702;BME280;66868;42.708;23.404;2023-04-25T00:19:26;94406.06;;;12.64;90.87
77702;BME280;66868;42.708;23.404;2023-04-25T00:21:54;94383.69;;;12.58;90.79
77702;BME280;66868;42.708;23.404;2023-04-25T00:24:19;94393.03;;;12.58;90.41
77702;BME280;66868;42.708;23.404;2023-04-25T00:26:45;94388.91;;;12.57;90.52
77702;BME280;66868;42.708;23.404;2023-04-25T00:29:10;94365.16;;;12.47;90.27
77702;BME280;66868;42.708;23.404;2023-04-25T00:31:36;94373.66;;;12.57;90.16
77702;BME280;66868;42.708;23.404;2023-04-25T00:34:01;94370.31;;;12.56;90.37
77702;BME280;66868;42.708;23.404;2023-04-25T00:36:27;94376.22;;;12.46;89.57
77702;BME280;66868;42.708;23.404;2023-04-25T00:38:53;94373.94;;;12.43;90.37
77702;BME280;66868;42.708;23.404;2023-04-25T00:41:20;94352.28;;;12.27;90.49
77702;BME280;66868;42.708;23.404;2023-04-25T00:43:46;94365.06;;;12.26;91.25
77702;BME280;66868;42.708;23.404;2023-04-25T00:46:12;94375.81;;;12.29;91.29
77702;BME280;66868;42.708;23.404;2023-04-25T00:48:38;94370.50;;;12.32;91.62
77702;BME280;66868;42.708;23.404;2023-04-25T00:51:03;94371.88;;;12.36;91.58
77702;BME280;66868;42.708;23.404;2023-04-25T00:53:30;94368.31;;;12.28;91.89
77702;BME280;66868;42.708;23.404;2023-04-25T00:55:57;94367.16;;;12.21;92.47
77702;BME280;66868;42.708;23.404;2023-04-25T00:58:23;94351.25;;;12.08;92.34
77702;BME280;66868;42.708;23.404;2023-04-25T01:00:50;94375.38;;;12.24;92.60
77702;BME280;66868;42.708;23.404;2023-04-25T01:03:17;94370.63;;;12.20;92.51
77702;BME280;66868;42.708;23.404;2023-04-25T01:05:45;94373.63;;;12.14;92.92
77702;BME280;66868;42.708;23.404;2023-04-25T01:08:13;94370.44;;;11.78;94.90
77702;BME280;66868;42.708;23.404;2023-04-25T01:10:38;94331.66;;;11.32;97.15
77702;BME280;66868;42.708;23.404;2023-04-25T01:13:05;94364.97;;;11.49;97.72
77702;BME280;66868;42.708;23.404;2023-04-25T01:15:31;94360.47;;;11.53;96.89
77702;BME280;66868;42.708;23.404;2023-04-25T01:17:57;94356.09;;;11.55;96.32
77702;BME280;66868;42.708;23.404;2023-04-25T01:20:24;94346.91;;;11.65;96.14
77702;BME280;66868;42.708;23.404;2023-04-25T01:22:53;94340.88;;;11.66;95.67
77702;BME280;66868;42.708;23.404;2023-04-25T01:25:20;94333.97;;;11.46;97.12
77702;BME280;66868;42.708;23.404;2023-04-25T01:27:46;94340.41;;;11.61;96.29
77702;BME280;66868;42.708;23.404;2023-04-25T01:30:12;94337.69;;;11.64;95.25
77702;BME280;66868;42.708;23.404;2023-04-25T01:32:38;94321.09;;;11.60;95.30
77702;BME280;66868;42.708;23.404;2023-04-25T01:35:06;94313.69;;;11.57;96.39
77702;BME280;66868;42.708;23.404;2023-04-25T01:37:38;94328.00;;;11.69;95.70
77702;BME280;66868;42.708;23.404;2023-04-25T01:40:04;94337.19;;;11.70;95.82
77702;BME280;66868;42.708;23.404;2023-04-25T01:42:31;94318.31;;;11.63;95.73
77702;BME280;66868;42.708;23.404;2023-04-25T01:44:57;94328.66;;;11.71;95.65
77702;BME280;66868;42.708;23.404;2023-04-25T01:47:22;94334.47;;;11.73;94.62
77702;BME280;66868;42.708;23.404;2023-04-25T01:49:48;94339.63;;;11.72;94.77
77702;BME280;66868;42.708;23.404;2023-04-25T01:52:13;94341.34;;;11.71;93.91
77702;BME280;66868;42.708;23.404;2023-04-25T01:54:38;94332.59;;;11.64;93.75
77702;BME280;66868;42.708;23.404;2023-04-25T01:57:09;94333.97;;;11.68;94.72
77702;BME280;66868;42.708;23.404;2023-04-25T01:59:35;94339.97;;;11.67;94.59
77702;BME280;66868;42.708;23.404;2023-04-25T02:02:00;94336.63;;;11.67;93.87
77702;BME280;66868;42.708;23.404;2023-04-25T02:04:29;94300.56;;;11.41;93.58
77702;BME280;66868;42.708;23.404;2023-04-25T02:06:54;94336.97;;;11.62;93.72
77702;BME280;66868;42.708;23.404;2023-04-25T02:09:20;94327.88;;;11.60;93.06
77702;BME280;66868;42.708;23.404;2023-04-25T02:11:45;94317.84;;;11.58;93.21
77702;BME280;66868;42.708;23.404;2023-04-25T02:14:10;94327.75;;;11.61;93.00
77702;BME280;66868;42.708;23.404;2023-04-25T02:16:36;94322.00;;;11.59;92.08
77702;BME280;66868;42.708;23.404;2023-04-25T02:19:02;94301.50;;;11.51;92.39
77702;BME280;66868;42.708;23.404;2023-04-25T02:21:27;94319.47;;;11.59;92.93
77702;BME280;66868;42.708;23.404;2023-04-25T02:23:53;94321.53;;;11.54;92.73
77702;BME280;66868;42.708;23.404;2023-04-25T02:26:19;94300.56;;;11.41;93.32
77702;BME280;66868;42.708;23.404;2023-04-25T02:28:44;94314.63;;;11.45;93.46
77702;BME280;66868;42.708;23.404;2023-04-25T02:31:10;94294.34;;;11.34;93.11
77702;BME280;66868;42.708;23.404;2023-04-25T02:33:35;94301.03;;;11.35;94.03
77702;BME280;66868;42.708;23.404;2023-04-25T02:36:00;94304.13;;;11.27;94.47
77702;BME280;66868;42.708;23.404;2023-04-25T02:38:26;94298.03;;;11.30;93.85
77702;BME280;66868;42.708;23.404;2023-04-25T02:40:51;94286.38;;;11.16;94.46
77702;BME280;66868;42.708;23.404;2023-04-25T02:43:16;94294.09;;;11.15;94.41
77702;BME280;66868;42.708;23.404;2023-04-25T02:45:42;94283.38;;;11.11;94.42
77702;BME280;66868;42.708;23.404;2023-04-25T02:48:07;94280.16;;;11.09;94.12
77702;BME280;66868;42.708;23.404;2023-04-25T02:50:32;94289.34;;;11.10;95.06
77702;BME280;66868;42.708;23.404;2023-04-25T02:52:58;94288.09;;;11.04;94.67
77702;BME280;66868;42.708;23.404;2023-04-25T02:55:23;94292.22;;;11.05;94.66
77702;BME280;66868;42.708;23.404;2023-04-25T02:57:49;94270.13;;;10.96;94.26
77702;BME280;66868;42.708;23.404;2023-04-25T03:00:14;94282.06;;;10.83;94.40
77702;BME280;66868;42.708;23.404;2023-04-25T03:02:40;94296.00;;;10.89;94.99
77702;BME280;66868;42.708;23.404;2023-04-25T03:05:05;94293.72;;;10.86;95.66
77702;BME280;66868;42.708;23.404;2023-04-25T03:07:31;94289.47;;;10.86;95.36
77702;BME280;66868;42.708;23.404;2023-04-25T03:09:56;94297.25;;;10.83;95.21
77702;BME280;66868;42.708;23.404;2023-04-25T03:12:22;94293.91;;;10.83;94.98
77702;BME280;66868;42.708;23.404;2023-04-25T03:14:47;94294.97;;;10.80;94.50
77702;BME280;66868;42.708;23.404;2023-04-25T03:17:12;94290.00;;;10.79;94.57
77702;BME280;66868;42.708;23.404;2023-04-25T03:19:38;94286.41;;;10.70;94.10
77702;BME280;66868;42.708;23.404;2023-04-25T03:22:03;94281.34;;;10.70;95.36
77702;BME280;66868;42.708;23.404;2023-04-25T03:24:28;94289.97;;;10.68;95.45
77702;BME280;66868;42.708;23.404;2023-04-25T03:26:54;94289.84;;;10.69;94.15
77702;BME280;66868;42.708;23.404;2023-04-25T03:29:19;94276.47;;;10.56;94.91
77702;BME280;66868;42.708;23.404;2023-04-25T03:31:49;94287.56;;;10.66;94.76
77702;BME280;66868;42.708;23.404;2023-04-25T03:34:15;94279.47;;;10.61;95.11
77702;BME280;66868;42.708;23.404;2023-04-25T03:36:40;94284.53;;;10.61;94.52
77702;BME280;66868;42.708;23.404;2023-04-25T03:39:05;94290.03;;;10.55;95.07
77702;BME280;66868;42.708;23.404;2023-04-25T03:41:31;94281.53;;;10.56;95.44
77702;BME280;66868;42.708;23.404;2023-04-25T03:43:56;94276.47;;;10.56;95.17
77702;BME280;66868;42.708;23.404;2023-04-25T03:46:22;94284.63;;;10.59;95.01
77702;BME280;66868;42.708;23.404;2023-04-25T03:48:47;94287.56;;;10.66;95.26
77702;BME280;66868;42.708;23.404;2023-04-25T03:51:13;94286.97;;;10.62;95.85
77702;BME280;66868;42.708;23.404;2023-04-25T03:53:38;94283.97;;;10.69;96.35
77702;BME280;66868;42.708;23.404;2023-04-25T03:56:03;94284.13;;;10.78;95.66
77702;BME280;66868;42.708;23.404;2023-04-25T03:58:29;94284.84;;;10.91;95.94
77702;BME280;66868;42.708;23.404;2023-04-25T04:00:54;94286.50;;;11.03;96.01
77702;BME280;66868;42.708;23.404;2023-04-25T04:03:20;94277.75;;;11.07;96.42
77702;BME280;66868;42.708;23.404;2023-04-25T04:05:46;94288.34;;;11.24;95.09
77702;BME280;66868;42.708;23.404;2023-04-25T04:08:11;94298.38;;;11.36;95.37
77702;BME280;66868;42.708;23.404;2023-04-25T04:10:37;94290.66;;;11.49;94.63
77702;BME280;66868;42.708;23.404;2023-04-25T04:13:02;94299.06;;;11.61;94.13
77702;BME280;66868;42.708;23.404;2023-04-25T04:15:28;94294.59;;;11.64;94.37
77702;BME280;66868;42.708;23.404;2023-04-25T04:17:53;94312.66;;;11.71;94.36
77702;BME280;66868;42.708;23.404;2023-04-25T04:20:19;94308.63;;;11.68;93.81
77702;BME280;66868;42.708;23.404;2023-04-25T04:22:45;94280.75;;;11.57;93.73
77702;BME280;66868;42.708;23.404;2023-04-25T04:25:10;94297.38;;;11.83;93.25
77702;BME280;66868;42.708;23.404;2023-04-25T04:27:37;94296.41;;;11.95;93.34
77702;BME280;66868;42.708;23.404;2023-04-25T04:30:03;94296.81;;;12.12;93.74
77702;BME280;66868;42.708;23.404;2023-04-25T04:32:28;94298.44;;;12.24;93.48
77702;BME280;66868;42.708;23.404;2023-04-25T04:34:55;94283.19;;;12.24;93.23
77702;BME280;66868;42.708;23.404;2023-04-25T04:37:21;94274.97;;;12.31;93.06
77702;BME280;66868;42.708;23.404;2023-04-25T04:39:47;94269.31;;;12.39;92.71
77702;BME280;66868;42.708;23.404;2023-04-25T04:42:12;94276.88;;;12.50;92.08
77702;BME280;66868;42.708;23.404;2023-04-25T04:44:38;94296.88;;;12.64;92.42
77702;BME280;66868;42.708;23.404;2023-04-25T04:47:04;94295.50;;;12.71;91.97
77702;BME280;66868;42.708;23.404;2023-04-25T04:49:32;94291.78;;;12.75;91.27
77702;BME280;66868;42.708;23.404;2023-04-25T04:51:57;94289.78;;;12.79;91.09
77702;BME280;66868;42.708;23.404;2023-04-25T04:54:22;94288.53;;;12.73;91.39
77702;BME280;66868;42.708;23.404;2023-04-25T04:56:48;94306.13;;;12.65;91.50
77702;BME280;66868;42.708;23.404;2023-04-25T04:59:13;94310.59;;;12.73;91.00
77702;BME280;66868;42.708;23.404;2023-04-25T05:01:38;94303.09;;;12.71;90.33
77702;BME280;66868;42.708;23.404;2023-04-25T05:04:05;94308.13;;;12.82;90.39
77702;BME280;66868;42.708;23.404;2023-04-25T05:06:30;94310.53;;;12.84;89.86
77702;BME280;66868;42.708;23.404;2023-04-25T05:08:57;94309.72;;;12.83;90.16
77702;BME280;66868;42.708;23.404;2023-04-25T05:11:23;94310.34;;;12.76;89.97
77702;BME280;66868;42.708;23.404;2023-04-25T05:13:50;94315.47;;;12.65;89.16
77702;BME280;66868;42.708;23.404;2023-04-25T05:16:16;94326.53;;;12.43;89.72
77702;BME280;66868;42.708;23.404;2023-04-25T05:18:41;94303.25;;;12.27;89.77
77702;BME280;66868;42.708;23.404;2023-04-25T05:21:07;94330.94;;;12.30;90.51
77702;BME280;66868;42.708;23.404;2023-04-25T05:23:32;94330.69;;;12.33;89.62
77702;BME280;66868;42.708;23.404;2023-04-25T05:25:58;94312.47;;;12.28;89.94
77702;BME280;66868;42.708;23.404;2023-04-25T05:28:24;94312.47;;;12.28;89.55
77702;BME280;66868;42.708;23.404;2023-04-25T05:30:49;94321.94;;;12.26;90.16
77702;BME280;66868;42.708;23.404;2023-04-25T05:33:15;94316.41;;;12.21;90.25
77702;BME280;66868;42.708;23.404;2023-04-25T05:35:41;94320.41;;;11.91;92.79
77702;BME280;66868;42.708;23.404;2023-04-25T05:38:06;94298.03;;;11.97;92.10
77702;BME280;66868;42.708;23.404;2023-04-25T05:40:32;94324.88;;;12.10;92.74
77702;BME280;66868;42.708;23.404;2023-04-25T05:42:57;94318.28;;;12.19;92.60
77702;BME280;66868;42.708;23.404;2023-04-25T05:45:22;94307.44;;;12.17;92.18
77702;BME280;66868;42.708;23.404;2023-04-25T05:47:48;94311.66;;;12.38;92.21
77702;BME280;66868;42.708;23.404;2023-04-25T05:50:13;94306.66;;;12.48;91.67
77702;BME280;66868;42.708;23.404;2023-04-25T05:52:39;94309.09;;;12.70;91.01
77702;BME280;66868;42.708;23.404;2023-04-25T05:55:05;94296.41;;;12.70;91.05
77702;BME280;66868;42.708;23.404;2023-04-25T05:57:31;94316.78;;;13.01;90.03
77702;BME280;66868;42.708;23.404;2023-04-25T05:59:56;94285.44;;;12.91;89.79
77702;BME280;66868;42.708;23.404;2023-04-25T06:02:22;94321.53;;;13.26;86.69
77702;BME280;66868;42.708;23.404;2023-04-25T06:04:50;94307.38;;;13.33;86.76
77702;BME280;66868;42.708;23.404;2023-04-25T06:07:16;94312.94;;;13.48;86.51
77702;BME280;66868;42.708;23.404;2023-04-25T06:09:42;94312.13;;;13.47;86.82
77702;BME280;66868;42.708;23.404;2023-04-25T06:12:08;94307.75;;;13.49;87.13
77702;BME280;66868;42.708;23.404;2023-04-25T06:14:34;94316.88;;;13.61;86.77
77702;BME280;66868;42.708;23.404;2023-04-25T06:16:59;94306.97;;;13.58;85.81
77702;BME280;66868;42.708;23.404;2023-04-25T06:19:25;94323.25;;;13.77;85.62
77702;BME280;66868;42.708;23.404;2023-04-25T06:21:50;94317.22;;;13.78;85.08
77702;BME280;66868;42.708;23.404;2023-04-25T06:24:18;94326.88;;;13.84;85.18
77702;BME280;66868;42.708;23.404;2023-04-25T06:26:44;94278.81;;;13.50;85.27
77702;BME280;66868;42.708;23.404;2023-04-25T06:29:09;94318.16;;;13.77;84.73
77702;BME280;66868;42.708;23.404;2023-04-25T06:31:34;94338.66;;;13.85;84.87
77702;BME280;66868;42.708;23.404;2023-04-25T06:34:00;94279.50;;;13.52;84.81
77702;BME280;66868;42.708;23.404;2023-04-25T06:36:25;94330.91;;;13.86;85.25
77702;BME280;66868;42.708;23.404;2023-04-25T06:38:52;94338.16;;;13.91;85.00
77702;BME280;66868;42.708;23.404;2023-04-25T06:41:18;94321.53;;;13.87;84.13
77702;BME280;66868;42.708;23.404;2023-04-25T06:43:44;94337.38;;;14.00;83.81
77702;BME280;66868;42.708;23.404;2023-04-25T06:46:09;94332.31;;;14.09;83.72
77702;BME280;66868;42.708;23.404;2023-04-25T06:48:35;94342.00;;;14.25;84.18
77702;BME280;66868;42.708;23.404;2023-04-25T06:51:00;94329.44;;;14.43;83.72
77702;BME280;66868;42.708;23.404;2023-04-25T06:53:25;94328.28;;;14.56;83.84
77702;BME280;66868;42.708;23.404;2023-04-25T06:55:51;94344.66;;;14.73;82.15
77702;BME280;66868;42.708;23.404;2023-04-25T06:58:17;94333.78;;;14.81;81.66
77702;BME280;66868;42.708;23.404;2023-04-25T07:00:42;94338.88;;;15.00;81.34
77702;BME280;66868;42.708;23.404;2023-04-25T07:03:08;94341.28;;;15.21;81.24
77702;BME280;66868;42.708;23.404;2023-04-25T07:05:33;94335.34;;;15.39;80.59
77702;BME280;66868;42.708;23.404;2023-04-25T07:07:58;94344.31;;;15.53;78.94
77702;BME280;66868;42.708;23.404;2023-04-25T07:10:24;94340.13;;;15.62;77.49
77702;BME280;66868;42.708;23.404;2023-04-25T07:12:50;94296.25;;;15.48;76.93
77702;BME280;66868;42.708;23.404;2023-04-25T07:15:15;94339.09;;;15.82;76.71
77702;BME280;66868;42.708;23.404;2023-04-25T07:17:41;94331.44;;;15.82;76.99
77702;BME280;66868;42.708;23.404;2023-04-25T07:20:06;94326.47;;;15.90;77.97
77702;BME280;66868;42.708;23.404;2023-04-25T07:22:34;94341.03;;;16.07;78.10
77702;BME280;66868;42.708;23.404;2023-04-25T07:24:59;94341.97;;;16.06;77.00
77702;BME280;66868;42.708;23.404;2023-04-25T07:27:25;94327.88;;;16.02;77.37
77702;BME280;66868;42.708;23.404;2023-04-25T07:29:50;94328.41;;;16.06;77.92
77702;BME280;66868;42.708;23.404;2023-04-25T07:32:15;94335.44;;;16.21;76.61
77702;BME280;66868;42.708;23.404;2023-04-25T07:34:41;94332.38;;;16.18;75.91
77702;BME280;66868;42.708;23.404;2023-04-25T07:37:06;94292.19;;;15.93;75.83
77702;BME280;66868;42.708;23.404;2023-04-25T07:39:33;94334.88;;;16.27;75.48
77702;BME280;66868;42.708;23.404;2023-04-25T07:41:58;94334.66;;;16.39;74.85
77702;BME280;66868;42.708;23.404;2023-04-25T07:44:24;94328.94;;;16.54;73.62
77702;BME280;66868;42.708;23.404;2023-04-25T07:46:51;94328.81;;;16.73;72.20
77702;BME280;66868;42.708;23.404;2023-04-25T07:49:16;94328.31;;;16.88;72.30
77702;BME280;66868;42.708;23.404;2023-04-25T07:51:42;94323.09;;;16.97;72.14
77702;BME280;66868;42.708;23.404;2023-04-25T07:54:09;94259.59;;;16.67;71.79
77702;BME280;66868;42.708;23.404;2023-04-25T07:56:34;94324.91;;;17.22;71.79
77702;BME280;66868;42.708;23.404;2023-04-25T07:59:00;94326.19;;;17.27;71.21
77702;BME280;66868;42.708;23.404;2023-04-25T08:01:26;94327.22;;;17.34;71.04
77702;BME280;66868;42.708;23.404;2023-04-25T08:03:52;94322.75;;;17.36;70.06
77702;BME280;66868;42.708;23.404;2023-04-25T08:06:17;94319.38;;;17.35;71.31
77702;BME280;66868;42.708;23.404;2023-04-25T08:08:43;94315.50;;;17.31;70.61
77702;BME280;66868;42.708;23.404;2023-04-25T08:11:08;94320.69;;;17.39;70.49
77702;BME280;66868;42.708;23.404;2023-04-25T08:13:34;94313.75;;;17.32;69.85
77702;BME280;66868;42.708;23.404;2023-04-25T08:15:59;94313.75;;;17.32;69.89
77702;BME280;66868;42.708;23.404;2023-04-25T08:18:24;94319.38;;;17.35;69.45
77702;BME280;66868;42.708;23.404;2023-04-25T08:20:50;94323.69;;;17.35;68.95
77702;BME280;66868;42.708;23.404;2023-04-25T08:23:15;94300.22;;;17.13;68.30
77702;BME280;66868;42.708;23.404;2023-04-25T08:25:41;94310.84;;;17.27;69.28
77702;BME280;66868;42.708;23.404;2023-04-25T08:28:06;94296.41;;;17.17;67.92
77702;BME280;66868;42.708;23.404;2023-04-25T08:30:31;94311.56;;;17.37;68.11
77702;BME280;66868;42.708;23.404;2023-04-25T08:32:57;94299.63;;;17.45;67.71
77702;BME280;66868;42.708;23.404;2023-04-25T08:35:23;94296.91;;;17.47;67.71
77702;BME280;66868;42.708;23.404;2023-04-25T08:37:48;94260.56;;;17.43;66.49
77702;BME280;66868;42.708;23.404;2023-04-25T08:40:15;94303.66;;;17.74;66.76
77702;BME280;66868;42.708;23.404;2023-04-25T08:42:42;94314.38;;;17.77;67.00
77702;BME280;66868;42.708;23.404;2023-04-25T08:45:08;94322.34;;;17.66;65.50
77702;BME280;66868;42.708;23.404;2023-04-25T08:47:37;94323.34;;;16.86;71.17
77702;BME280;66868;42.708;23.404;2023-04-25T08:50:04;94323.44;;;16.49;74.33
77702;BME280;66868;42.708;23.404;2023-04-25T08:52:36;94336.91;;;15.97;77.92
77702;BME280;66868;42.708;23.404;2023-04-25T08:55:02;94327.69;;;15.86;76.00
77702;BME280;66868;42.708;23.404;2023-04-25T08:57:29;94333.53;;;15.69;75.13
77702;BME280;66868;42.708;23.404;2023-04-25T08:59:57;94323.50;;;15.58;74.73
77702;BME280;66868;42.708;23.404;2023-04-25T09:02:24;94309.91;;;15.67;76.51
77702;BME280;66868;42.708;23.404;2023-04-25T09:04:50;94307.06;;;15.70;73.64
77702;BME280;66868;42.708;23.404;2023-04-25T09:07:15;94291.75;;;15.70;73.21
77702;BME280;66868;42.708;23.404;2023-04-25T09:09:43;94297.81;;;15.96;74.65
77702;BME280;66868;42.708;23.404;2023-04-25T09:12:09;94295.38;;;16.22;73.91
77702;BME280;66868;42.708;23.404;2023-04-25T09:14:35;94292.41;;;16.44;71.49
77702;BME280;66868;42.708;23.404;2023-04-25T09:17:02;94285.72;;;16.61;69.98
77702;BME280;66868;42.708;23.404;2023-04-25T09:19:32;94282.28;;;16.70;66.65
77702;BME280;66868;42.708;23.404;2023-04-25T09:22:00;94287.97;;;16.99;67.28
77702;BME280;66868;42.708;23.404;2023-04-25T09:24:38;94274.59;;;17.31;69.95
77702;BME280;66868;42.708;23.404;2023-04-25T09:27:05;94268.13;;;17.53;68.75
77702;BME280;66868;42.708;23.404;2023-04-25T09:29:33;94267.38;;;17.86;68.96
77702;BME280;66868;42.708;23.404;2023-04-25T09:32:21;94271.31;;;18.15;68.21
77702;BME280;66868;42.708;23.404;2023-04-25T09:37:27;94267.50;;;18.35;65.67
77702;BME280;66868;42.708;23.404;2023-04-25T09:39:58;94282.63;;;18.54;64.03
77702;BME280;66868;42.708;23.404;2023-04-25T09:42:31;94274.78;;;18.56;64.04
77702;BME280;66868;42.708;23.404;2023-04-25T09:44:58;94267.56;;;18.59;63.78
77702;BME280;66868;42.708;23.404;2023-04-25T09:47:25;94277.50;;;18.78;63.34
77702;BME280;66868;42.708;23.404;2023-04-25T09:49:52;94278.16;;;18.80;64.57
77702;BME280;66868;42.708;23.404;2023-04-25T09:52:22;94275.44;;;18.90;66.15
77702;BME280;66868;42.708;23.404;2023-04-25T09:54:49;94256.84;;;18.88;66.78
77702;BME280;66868;42.708;23.404;2023-04-25T09:57:17;94281.66;;;19.20;66.45
77702;BME280;66868;42.708;23.404;2023-04-25T09:59:44;94277.66;;;19.01;63.83
77702;BME280;66868;42.708;23.404;2023-04-25T10:02:11;94267.56;;;18.83;62.95
77702;BME280;66868;42.708;23.404;2023-04-25T10:04:37;94265.34;;;18.72;63.96
77702;BME280;66868;42.708;23.404;2023-04-25T10:07:06;94249.91;;;18.48;63.71
77702;BME280;66868;42.708;23.404;2023-04-25T10:09:33;94284.03;;;18.48;64.77
77702;BME280;66868;42.708;23.404;2023-04-25T10:12:02;94272.00;;;18.41;65.69
77702;BME280;66868;42.708;23.404;2023-04-25T10:14:31;94284.56;;;18.68;65.12
77702;BME280;66868;42.708;23.404;2023-04-25T10:17:00;94270.13;;;18.83;65.04
77702;BME280;66868;42.708;23.404;2023-04-25T10:19:27;94260.69;;;19.08;65.24
77702;BME280;66868;42.708;23.404;2023-04-25T10:21:55;94256.34;;;19.17;63.91
77702;BME280;66868;42.708;23.404;2023-04-25T10:24:22;94273.84;;;18.89;60.94
77702;BME280;66868;42.708;23.404;2023-04-25T10:26:48;94266.63;;;18.76;61.60
77702;BME280;66868;42.708;23.404;2023-04-25T10:29:22;94261.78;;;18.49;60.77
77702;BME280;66868;42.708;23.404;2023-04-25T10:31:49;94260.59;;;18.27;60.73
77702;BME280;66868;42.708;23.404;2023-04-25T10:34:16;94283.78;;;18.18;60.34
77702;BME280;66868;42.708;23.404;2023-04-25T10:36:42;94300.38;;;17.63;60.03
77702;BME280;66868;42.708;23.404;2023-04-25T10:39:07;94328.13;;;17.25;61.36
77702;BME280;66868;42.708;23.404;2023-04-25T10:41:47;94318.31;;;16.31;60.80
77702;BME280;66868;42.708;23.404;2023-04-25T10:44:16;94321.16;;;16.01;61.65
77702;BME280;66868;42.708;23.404;2023-04-25T10:46:41;94303.91;;;15.58;64.75
77702;BME280;66868;42.708;23.404;2023-04-25T10:49:07;94295.59;;;15.37;65.71
77702;BME280;66868;42.708;23.404;2023-04-25T10:51:34;94303.84;;;15.21;67.45
77702;BME280;66868;42.708;23.404;2023-04-25T10:54:05;94300.75;;;15.08;69.24
77702;BME280;66868;42.708;23.404;2023-04-25T10:56:33;94285.50;;;14.89;71.66
77702;BME280;66868;42.708;23.404;2023-04-25T10:59:12;94290.34;;;14.63;73.27
77702;BME280;66868;42.708;23.404;2023-04-25T11:01:42;94283.22;;;14.86;72.66
77702;BME280;66868;42.708;23.404;2023-04-25T11:09:34;94229.22;;;14.53;72.05
77702;BME280;66868;42.708;23.404;2023-04-25T11:12:03;94268.03;;;15.03;73.09
77702;BME280;66868;42.708;23.404;2023-04-25T11:14:30;94263.53;;;15.34;69.89
77702;BME280;66868;42.708;23.404;2023-04-25T11:16:58;94249.78;;;15.45;69.92
77702;BME280;66868;42.708;23.404;2023-04-25T11:19:25;94269.94;;;15.85;70.10
77702;BME280;66868;42.708;23.404;2023-04-25T11:22:01;94236.84;;;15.93;67.89
77702;BME280;66868;42.708;23.404;2023-04-25T11:24:28;94234.97;;;16.30;64.18
77702;BME280;66868;42.708;23.404;2023-04-25T11:26:54;94243.31;;;16.94;65.13
77702;BME280;66868;42.708;23.404;2023-04-25T11:29:28;94235.50;;;17.21;62.60
77702;BME280;66868;42.708;23.404;2023-04-25T11:31:54;94250.47;;;17.34;59.67
77702;BME280;66868;42.708;23.404;2023-04-25T11:34:23;94229.69;;;17.37;58.12
77702;BME280;66868;42.708;23.404;2023-04-25T11:36:50;94231.16;;;17.13;56.95
77702;BME280;66868;42.708;23.404;2023-04-25T11:39:15;94233.06;;;17.11;56.89
77702;BME280;66868;42.708;23.404;2023-04-25T11:41:41;94186.59;;;16.90;56.24
77702;BME280;66868;42.708;23.404;2023-04-25T11:44:07;94238.84;;;17.13;57.87
77702;BME280;66868;42.708;23.404;2023-04-25T11:46:35;94241.84;;;17.09;56.57
77702;BME280;66868;42.708;23.404;2023-04-25T11:49:01;94246.75;;;17.02;56.54
77702;BME280;66868;42.708;23.404;2023-04-25T11:51:27;94227.28;;;16.84;54.76
77702;BME280;66868;42.708;23.404;2023-04-25T11:53:52;94242.41;;;16.77;56.58
77702;BME280;66868;42.708;23.404;2023-04-25T11:56:18;94252.19;;;16.82;57.14
77702;BME280;66868;42.708;23.404;2023-04-25T11:58:59;94243.94;;;16.88;58.40
77702;BME280;66868;42.708;23.404;2023-04-25T12:01:35;94237.97;;;17.05;58.14
77702;BME280;66868;42.708;23.404;2023-04-25T12:04:30;94238.72;;;17.91;54.51
77702;BME280;66868;42.708;23.404;2023-04-25T12:06:57;94242.72;;;18.84;54.21
77702;BME280;66868;42.708;23.404;2023-04-25T12:09:33;94240.22;;;19.94;51.69
77702;BME280;66868;42.708;23.404;2023-04-25T12:12:00;94225.97;;;20.68;48.20
77702;BME280;66868;42.708;23.404;2023-04-25T12:14:30;94243.56;;;21.39;45.03
77702;BME280;66868;42.708;23.404;2023-04-25T12:17:01;94237.78;;;21.67;45.91
77702;BME280;66868;42.708;23.404;2023-04-25T12:19:37;94244.72;;;22.10;46.26
77702;BME280;66868;42.708;23.404;2023-04-25T12:22:19;94234.94;;;21.91;44.76
77702;BME280;66868;42.708;23.404;2023-04-25T12:24:46;94242.88;;;21.45;45.68
77702;BME280;66868;42.708;23.404;2023-04-25T12:27:14;94242.31;;;21.35;46.51
77702;BME280;66868;42.708;23.404;2023-04-25T12:32:58;94240.34;;;21.37;45.08
77702;BME280;66868;42.708;23.404;2023-04-25T12:35:24;94255.75;;;21.08;46.36
77702;BME280;66868;42.708;23.404;2023-04-25T12:37:49;94291.13;;;20.38;47.57
77702;BME280;66868;42.708;23.404;2023-04-25T12:40:15;94295.31;;;18.80;53.54
77702;BME280;66868;42.708;23.404;2023-04-25T12:42:40;94300.03;;;17.58;63.75
77702;BME280;66868;42.708;23.404;2023-04-25T12:45:06;94302.28;;;15.47;70.00
77702;BME280;66868;42.708;23.404;2023-04-25T12:47:31;94303.34;;;14.50;73.50
77702;BME280;66868;42.708;23.404;2023-04-25T12:50:00;94295.63;;;14.12;72.21
77702;BME280;66868;42.708;23.404;2023-04-25T12:52:25;94301.81;;;14.19;72.03
77702;BME280;66868;42.708;23.404;2023-04-25T12:54:50;94278.44;;;13.95;74.44
77702;BME280;66868;42.708;23.404;2023-04-25T12:57:16;94280.59;;;13.99;73.61
77702;BME280;66868;42.708;23.404;2023-04-25T12:59:41;94237.28;;;13.70;75.96